createdAt,value
2023-05-05T00:00:02.095Z,10.87
2023-05-05T00:00:17.437Z,10.87
2023-05-05T00:00:51.758Z,10.87
2023-05-05T00:01:04.305Z,10.86
2023-05-05T00:01:16.882Z,10.85
2023-05-05T00:01:29.698Z,10.86
2023-05-05T00:01:42.486Z,10.86
2023-05-05T00:01:55.409Z,10.85
2023-05-05T00:02:08.994Z,10.85
2023-05-05T00:02:21.830Z,10.84
2023-05-05T00:02:34.514Z,10.84
2023-05-05T00:02:47.870Z,10.84
2023-05-05T00:03:00.608Z,10.84
2023-05-05T00:03:13.304Z,10.82
2023-05-05T00:03:26.283Z,10.83
2023-05-05T00:03:39.107Z,10.82
2023-05-05T00:03:52.311Z,10.82
2023-05-05T00:04:06.101Z,10.82
2023-05-05T00:04:22.481Z,10.82
2023-05-05T00:04:35.097Z,10.82
2023-05-05T00:04:47.801Z,10.82
2023-05-05T00:05:00.361Z,10.82
2023-05-05T00:05:12.923Z,10.82
2023-05-05T00:05:25.583Z,10.82
2023-05-05T00:05:39.363Z,10.82
2023-05-05T00:05:53.094Z,10.82
2023-05-05T00:06:05.897Z,10.83
2023-05-05T00:06:18.443Z,10.83
2023-05-05T00:06:31.529Z,10.83
2023-05-05T00:06:44.076Z,10.82
2023-05-05T00:06:58.271Z,10.83
2023-05-05T00:07:10.812Z,10.82
2023-05-05T00:07:23.334Z,10.82
2023-05-05T00:07:35.854Z,10.82
2023-05-05T00:07:48.473Z,10.82
2023-05-05T00:08:01.040Z,10.80
2023-05-05T00:08:13.598Z,10.82
2023-05-05T00:08:27.123Z,10.82
2023-05-05T00:08:39.651Z,10.82
2023-05-05T00:08:52.156Z,10.82
2023-05-05T00:09:04.927Z,10.81
2023-05-05T00:09:17.515Z,10.81
2023-05-05T00:09:30.041Z,10.80
2023-05-05T00:09:42.923Z,10.81
2023-05-05T00:09:56.416Z,10.82
2023-05-05T00:10:09.990Z,10.81
2023-05-05T00:10:22.693Z,10.80
2023-05-05T00:10:35.287Z,10.81
2023-05-05T00:10:48.394Z,10.81
2023-05-05T00:11:01.072Z,10.80
2023-05-05T00:11:13.664Z,10.80
2023-05-05T00:11:27.318Z,10.81
2023-05-05T00:11:39.850Z,10.80
2023-05-05T00:11:52.625Z,10.80
2023-05-05T00:12:05.917Z,10.81
2023-05-05T00:12:18.435Z,10.81
2023-05-05T00:12:31.066Z,10.80
2023-05-05T00:12:43.721Z,10.81
2023-05-05T00:12:56.869Z,10.80
2023-05-05T00:13:10.578Z,10.81
2023-05-05T00:13:23.690Z,10.81
2023-05-05T00:13:36.329Z,10.82
2023-05-05T00:13:49.227Z,10.82
2023-05-05T00:14:01.778Z,10.82
2023-05-05T00:14:14.447Z,10.82
2023-05-05T00:14:27.010Z,10.82
2023-05-05T00:14:39.605Z,10.83
2023-05-05T00:14:53.169Z,10.82
2023-05-05T00:15:07.372Z,10.84
2023-05-05T00:15:21.415Z,10.84
2023-05-05T00:15:34.033Z,10.85
2023-05-05T00:15:49.177Z,10.85
2023-05-05T00:16:01.757Z,10.86
2023-05-05T00:16:14.627Z,10.86
2023-05-05T00:16:28.850Z,10.87
2023-05-05T00:16:41.495Z,10.88
2023-05-05T00:16:54.098Z,10.88
2023-05-05T00:17:06.818Z,10.88
2023-05-05T00:17:19.558Z,10.89
2023-05-05T00:17:32.148Z,10.88
2023-05-05T00:17:44.724Z,10.88
2023-05-05T00:17:57.317Z,10.88
2023-05-05T00:18:10.408Z,10.88
2023-05-05T00:18:22.972Z,10.89
2023-05-05T00:18:36.584Z,10.89
2023-05-05T00:18:49.197Z,10.89
2023-05-05T00:19:01.801Z,10.89
2023-05-05T00:19:14.342Z,10.89
2023-05-05T00:19:26.834Z,10.88
2023-05-05T00:19:39.410Z,10.89
2023-05-05T00:19:52.388Z,10.88
2023-05-05T00:20:07.026Z,10.89
2023-05-05T00:20:21.158Z,10.89
2023-05-05T00:20:33.737Z,10.89
2023-05-05T00:20:47.364Z,10.89
2023-05-05T00:21:00.133Z,10.89
2023-05-05T00:21:12.732Z,10.89
2023-05-05T00:21:25.280Z,10.89
2023-05-05T00:21:37.833Z,10.89
2023-05-05T00:21:51.393Z,10.88
2023-05-05T00:22:03.985Z,10.89
2023-05-05T00:22:16.713Z,10.89
2023-05-05T00:22:29.262Z,10.89
2023-05-05T00:22:41.857Z,10.89
2023-05-05T00:22:54.418Z,10.89
2023-05-05T00:23:06.928Z,10.89
2023-05-05T00:23:20.206Z,10.89
2023-05-05T00:23:33.714Z,10.88
2023-05-05T00:23:46.561Z,10.89
2023-05-05T00:23:59.110Z,10.90
2023-05-05T00:24:11.877Z,10.89
2023-05-05T00:24:24.506Z,10.89
2023-05-05T00:24:37.019Z,10.89
2023-05-05T00:24:49.526Z,10.88
2023-05-05T00:25:02.042Z,10.89
2023-05-05T00:25:14.711Z,10.87
2023-05-05T00:25:29.215Z,10.87
2023-05-05T00:25:41.916Z,10.87
2023-05-05T00:25:54.509Z,10.86
2023-05-05T00:26:07.112Z,10.86
2023-05-05T00:26:19.937Z,10.86
2023-05-05T00:26:32.530Z,10.85
2023-05-05T00:26:46.153Z,10.85
2023-05-05T00:26:58.900Z,10.84
2023-05-05T00:27:11.481Z,10.86
2023-05-05T00:27:24.307Z,10.84
2023-05-05T00:27:38.885Z,10.84
2023-05-05T00:27:52.755Z,10.84
2023-05-05T00:28:05.732Z,10.84
2023-05-05T00:28:18.225Z,10.84
2023-05-05T00:28:30.776Z,10.85
2023-05-05T00:28:44.431Z,10.84
2023-05-05T00:28:57.231Z,10.84
2023-05-05T00:29:09.789Z,10.84
2023-05-05T00:29:22.301Z,10.83
2023-05-05T00:29:34.812Z,10.85
2023-05-05T00:29:47.905Z,10.85
2023-05-05T00:30:00.441Z,10.85
2023-05-05T00:30:14.525Z,10.85
2023-05-05T00:30:28.440Z,10.84
2023-05-05T00:30:41.099Z,10.85
2023-05-05T00:30:53.785Z,10.84
2023-05-05T00:31:08.169Z,10.85
2023-05-05T00:31:21.608Z,10.85
2023-05-05T00:31:35.302Z,10.85
2023-05-05T00:31:47.978Z,10.85
2023-05-05T00:32:00.509Z,10.85
2023-05-05T00:32:13.228Z,10.86
2023-05-05T00:32:25.953Z,10.85
2023-05-05T00:32:38.609Z,10.85
2023-05-05T00:32:51.625Z,10.85
2023-05-05T00:33:05.850Z,10.85
2023-05-05T00:33:18.433Z,10.85
2023-05-05T00:33:31.230Z,10.86
2023-05-05T00:33:43.972Z,10.85
2023-05-05T00:33:56.513Z,10.86
2023-05-05T00:34:09.045Z,10.86
2023-05-05T00:34:22.562Z,10.86
2023-05-05T00:34:35.104Z,10.87
2023-05-05T00:34:47.909Z,10.87
2023-05-05T00:35:00.697Z,10.86
2023-05-05T00:35:13.317Z,10.86
2023-05-05T00:35:26.988Z,10.87
2023-05-05T00:35:39.565Z,10.87
2023-05-05T00:35:52.376Z,10.86
2023-05-05T00:36:06.151Z,10.86
2023-05-05T00:36:18.831Z,10.86
2023-05-05T00:36:31.397Z,10.85
2023-05-05T00:36:43.994Z,10.86
2023-05-05T00:36:56.552Z,10.87
2023-05-05T00:37:09.094Z,10.86
2023-05-05T00:37:21.637Z,10.86
2023-05-05T00:37:35.254Z,10.87
2023-05-05T00:37:47.783Z,10.86
2023-05-05T00:38:00.366Z,10.86
2023-05-05T00:38:13.000Z,10.86
2023-05-05T00:38:25.777Z,10.85
2023-05-05T00:38:38.544Z,10.85
2023-05-05T00:38:51.088Z,10.85
2023-05-05T00:39:04.790Z,10.85
2023-05-05T00:39:17.305Z,10.85
2023-05-05T00:39:30.604Z,10.85
2023-05-05T00:39:44.385Z,10.85
2023-05-05T00:39:57.430Z,10.85
2023-05-05T00:40:11.130Z,10.86
2023-05-05T00:40:25.416Z,10.85
2023-05-05T00:40:38.030Z,10.85
2023-05-05T00:40:50.613Z,10.85
2023-05-05T00:41:03.352Z,10.85
2023-05-05T00:41:15.994Z,10.86
2023-05-05T00:41:28.812Z,10.86
2023-05-05T00:41:41.634Z,10.86
2023-05-05T00:41:55.181Z,10.85
2023-05-05T00:42:08.004Z,10.86
2023-05-05T00:42:20.568Z,10.85
2023-05-05T00:42:39.760Z,10.86
2023-05-05T00:42:52.568Z,10.85
2023-05-05T00:43:05.372Z,10.85
2023-05-05T00:43:17.922Z,10.85
2023-05-05T00:43:31.464Z,10.85
2023-05-05T00:43:44.006Z,10.85
2023-05-05T00:43:56.821Z,10.84
2023-05-05T00:44:09.444Z,10.84
2023-05-05T00:44:36.009Z,10.84
2023-05-05T00:44:48.546Z,10.84
2023-05-05T00:45:01.125Z,10.84
2023-05-05T00:45:15.073Z,10.84
2023-05-05T00:45:30.263Z,10.84
2023-05-05T00:45:47.517Z,10.84
2023-05-05T00:46:02.264Z,10.83
2023-05-05T00:46:26.268Z,10.83
2023-05-05T00:46:40.568Z,10.83
2023-05-05T00:46:54.341Z,10.84
2023-05-05T00:47:08.370Z,10.83
2023-05-05T00:47:21.159Z,10.83
2023-05-05T00:47:33.748Z,10.84
2023-05-05T00:47:49.072Z,10.83
2023-05-05T00:48:01.943Z,10.85
2023-05-05T00:48:16.977Z,10.83
2023-05-05T00:48:30.709Z,10.84
2023-05-05T00:48:43.294Z,10.84
2023-05-05T00:48:57.735Z,10.83
2023-05-05T00:49:10.618Z,10.82
2023-05-05T00:49:23.191Z,10.83
2023-05-05T00:49:36.295Z,10.83
2023-05-05T00:49:50.140Z,10.83
2023-05-05T00:50:03.783Z,10.83
2023-05-05T00:50:22.921Z,10.82
2023-05-05T00:50:36.453Z,10.81
2023-05-05T00:50:49.065Z,10.81
2023-05-05T00:51:01.689Z,10.81
2023-05-05T00:51:16.704Z,10.80
2023-05-05T00:51:31.349Z,10.81
2023-05-05T00:51:43.940Z,10.81
2023-05-05T00:51:56.666Z,10.80
2023-05-05T00:52:09.870Z,10.79
2023-05-05T00:52:22.495Z,10.79
2023-05-05T00:52:36.217Z,10.79
2023-05-05T00:52:49.294Z,10.80
2023-05-05T00:53:03.725Z,10.79
2023-05-05T00:53:17.274Z,10.79
2023-05-05T00:53:30.162Z,10.80
2023-05-05T00:53:45.080Z,10.79
2023-05-05T00:53:57.743Z,10.79
2023-05-05T00:54:10.408Z,10.78
2023-05-05T00:54:23.036Z,10.79
2023-05-05T00:54:36.315Z,10.79
2023-05-05T00:54:49.132Z,10.78
2023-05-05T00:55:02.057Z,10.79
2023-05-05T00:55:15.731Z,10.78
2023-05-05T00:55:28.929Z,10.78
2023-05-05T00:55:41.787Z,10.79
2023-05-05T00:55:54.555Z,10.78
2023-05-05T00:56:07.435Z,10.78
2023-05-05T00:56:22.037Z,10.78
2023-05-05T00:56:35.608Z,10.80
2023-05-05T00:56:50.057Z,10.79
2023-05-05T00:57:03.070Z,10.79
2023-05-05T00:57:16.002Z,10.80
2023-05-05T00:57:28.978Z,10.79
2023-05-05T00:57:41.972Z,10.80
2023-05-05T00:57:54.787Z,10.80
2023-05-05T00:58:08.882Z,10.80
2023-05-05T00:58:21.536Z,10.81
2023-05-05T00:58:34.924Z,10.81
2023-05-05T00:58:48.061Z,10.82
2023-05-05T00:59:02.459Z,10.82
2023-05-05T00:59:15.028Z,10.81
2023-05-05T00:59:28.324Z,10.82
2023-05-05T00:59:42.177Z,10.81
2023-05-05T00:59:55.987Z,10.81
2023-05-05T01:00:10.088Z,10.81
2023-05-05T01:00:23.095Z,10.80
2023-05-05T01:00:37.081Z,10.81
2023-05-05T01:00:50.584Z,10.80
2023-05-05T01:01:04.352Z,10.81
2023-05-05T01:01:17.753Z,10.79
2023-05-05T01:01:30.345Z,10.80
2023-05-05T01:01:43.273Z,10.80
2023-05-05T01:01:55.965Z,10.81
2023-05-05T01:02:09.474Z,10.80
2023-05-05T01:02:22.779Z,10.80
2023-05-05T01:02:36.729Z,10.80
2023-05-05T01:02:49.442Z,10.81
2023-05-05T01:03:02.186Z,10.80
2023-05-05T01:03:15.520Z,10.80
2023-05-05T01:03:28.285Z,10.81
2023-05-05T01:03:41.746Z,10.80
2023-05-05T01:03:55.647Z,10.81
2023-05-05T01:04:08.193Z,10.80
2023-05-05T01:04:20.764Z,10.80
2023-05-05T01:04:33.771Z,10.80
2023-05-05T01:04:46.293Z,10.81
2023-05-05T01:04:58.843Z,10.81
2023-05-05T01:05:13.380Z,10.82
2023-05-05T01:05:34.068Z,10.80
2023-05-05T01:05:55.332Z,10.81
2023-05-05T01:06:18.735Z,10.82
2023-05-05T01:06:42.217Z,10.81
2023-05-05T01:07:08.951Z,10.81
2023-05-05T01:07:32.987Z,10.81
2023-05-05T01:07:56.990Z,10.81
2023-05-05T01:08:27.985Z,10.80
2023-05-05T01:08:51.283Z,10.81
2023-05-05T01:09:12.896Z,10.81
2023-05-05T01:09:36.407Z,10.81
2023-05-05T01:10:11.014Z,10.80
2023-05-05T01:10:38.597Z,10.80
2023-05-05T01:10:55.115Z,10.79
2023-05-05T01:11:14.389Z,10.78
2023-05-05T01:11:36.765Z,10.78
2023-05-05T01:11:56.714Z,10.78
2023-05-05T01:12:19.642Z,10.78
2023-05-05T01:12:41.543Z,10.79
2023-05-05T01:13:04.589Z,10.79
2023-05-05T01:13:29.961Z,10.78
2023-05-05T01:13:50.392Z,10.79
2023-05-05T01:14:12.544Z,10.80
2023-05-05T01:14:34.278Z,10.80
2023-05-05T01:14:53.018Z,10.80
2023-05-05T01:15:14.262Z,10.80
2023-05-05T01:15:33.056Z,10.80
2023-05-05T01:15:53.460Z,10.81
2023-05-05T01:16:12.965Z,10.81
2023-05-05T01:16:29.042Z,10.81
2023-05-05T01:16:56.005Z,10.82
2023-05-05T01:17:17.298Z,10.83
2023-05-05T01:17:39.618Z,10.81
2023-05-05T01:17:57.475Z,10.82
2023-05-05T01:18:14.407Z,10.83
2023-05-05T01:18:32.547Z,10.82
2023-05-05T01:18:52.178Z,10.83
2023-05-05T01:19:14.849Z,10.83
2023-05-05T01:19:53.597Z,10.84
2023-05-05T01:20:17.145Z,10.84
2023-05-05T01:20:37.224Z,10.84
2023-05-05T01:20:58.704Z,10.84
2023-05-05T01:21:15.515Z,10.83
2023-05-05T01:21:33.860Z,10.83
2023-05-05T01:21:51.802Z,10.83
2023-05-05T01:22:09.029Z,10.83
2023-05-05T01:22:27.209Z,10.81
2023-05-05T01:22:43.976Z,10.81
2023-05-05T01:23:00.972Z,10.81
2023-05-05T01:23:23.039Z,10.81
2023-05-05T01:24:07.890Z,10.78
2023-05-05T01:24:52.659Z,10.78
2023-05-05T01:25:27.039Z,10.77
2023-05-05T01:26:02.612Z,10.76
2023-05-05T01:26:35.936Z,10.74
2023-05-05T01:26:59.194Z,10.74
2023-05-05T01:27:34.271Z,10.73
2023-05-05T01:28:02.951Z,10.71
2023-05-05T01:28:28.053Z,10.71
2023-05-05T01:29:03.207Z,10.70
2023-05-05T01:29:35.503Z,10.70
2023-05-05T01:30:03.112Z,10.70
2023-05-05T01:30:28.673Z,10.70
2023-05-05T01:31:03.620Z,10.71
2023-05-05T01:31:53.164Z,10.71
2023-05-05T01:32:09.806Z,10.69
2023-05-05T01:32:26.839Z,10.69
2023-05-05T01:32:47.360Z,10.68
2023-05-05T01:33:06.621Z,10.68
2023-05-05T01:33:25.604Z,10.68
2023-05-05T01:33:46.057Z,10.68
2023-05-05T01:34:03.890Z,10.68
2023-05-05T01:34:19.565Z,10.67
2023-05-05T01:34:35.654Z,10.68
2023-05-05T01:34:55.047Z,10.68
2023-05-05T01:35:13.981Z,10.67
2023-05-05T01:35:31.893Z,10.68
2023-05-05T01:35:50.163Z,10.67
2023-05-05T01:36:07.660Z,10.67
2023-05-05T01:36:27.860Z,10.66
2023-05-05T01:36:44.626Z,10.66
2023-05-05T01:37:10.223Z,10.66
2023-05-05T01:37:24.917Z,10.67
2023-05-05T01:37:46.090Z,10.67
2023-05-05T01:38:04.987Z,10.66
2023-05-05T01:38:21.728Z,10.66
2023-05-05T01:38:40.575Z,10.66
2023-05-05T01:38:58.138Z,10.67
2023-05-05T01:39:15.126Z,10.66
2023-05-05T01:39:33.480Z,10.65
2023-05-05T01:39:50.220Z,10.66
2023-05-05T01:40:09.574Z,10.65
2023-05-05T01:40:26.880Z,10.65
2023-05-05T01:40:43.831Z,10.64
2023-05-05T01:41:03.785Z,10.64
2023-05-05T01:41:22.145Z,10.64
2023-05-05T01:41:42.782Z,10.64
2023-05-05T01:42:00.238Z,10.63
2023-05-05T01:42:15.015Z,10.64
2023-05-05T01:42:30.103Z,10.64
2023-05-05T01:42:43.867Z,10.64
2023-05-05T01:42:58.432Z,10.64
2023-05-05T01:43:13.648Z,10.65
2023-05-05T01:43:30.757Z,10.64
2023-05-05T01:43:47.123Z,10.63
2023-05-05T01:44:03.017Z,10.64
2023-05-05T01:44:16.802Z,10.63
2023-05-05T01:44:31.021Z,10.63
2023-05-05T01:44:44.943Z,10.61
2023-05-05T01:44:59.886Z,10.63
2023-05-05T01:45:14.670Z,10.63
2023-05-05T01:45:32.527Z,10.63
2023-05-05T01:45:46.938Z,10.62
2023-05-05T01:46:00.857Z,10.62
2023-05-05T01:46:15.321Z,10.61
2023-05-05T01:46:29.402Z,10.62
2023-05-05T01:46:42.066Z,10.61
2023-05-05T01:46:55.908Z,10.62
2023-05-05T01:47:12.508Z,10.62
2023-05-05T01:47:25.616Z,10.61
2023-05-05T01:47:40.338Z,10.61
2023-05-05T01:47:55.866Z,10.61
2023-05-05T01:48:11.672Z,10.61
2023-05-05T01:48:25.989Z,10.61
2023-05-05T01:48:41.770Z,10.61
2023-05-05T01:48:56.879Z,10.61
2023-05-05T01:49:11.791Z,10.62
2023-05-05T01:49:26.076Z,10.60
2023-05-05T01:49:39.722Z,10.61
2023-05-05T01:49:52.773Z,10.62
2023-05-05T01:50:08.595Z,10.60
2023-05-05T01:50:22.395Z,10.60
2023-05-05T01:50:37.036Z,10.60
2023-05-05T01:50:52.298Z,10.61
2023-05-05T01:51:07.485Z,10.59
2023-05-05T01:51:24.501Z,10.60
2023-05-05T01:51:38.373Z,10.60
2023-05-05T01:51:52.341Z,10.60
2023-05-05T01:52:06.934Z,10.60
2023-05-05T01:52:20.740Z,10.61
2023-05-05T01:52:36.906Z,10.60
2023-05-05T01:52:51.540Z,10.61
2023-05-05T01:53:06.287Z,10.60
2023-05-05T01:53:21.239Z,10.60
2023-05-05T01:53:35.576Z,10.60
2023-05-05T01:53:49.681Z,10.61
2023-05-05T01:54:08.795Z,10.61
2023-05-05T01:54:24.213Z,10.61
2023-05-05T01:54:39.258Z,10.61
2023-05-05T01:54:53.282Z,10.61
2023-05-05T01:55:08.567Z,10.61
2023-05-05T01:55:24.641Z,10.61
2023-05-05T01:55:40.219Z,10.61
2023-05-05T01:55:54.555Z,10.60
2023-05-05T01:56:09.606Z,10.60
2023-05-05T01:56:24.007Z,10.60
2023-05-05T01:56:39.921Z,10.60
2023-05-05T01:56:54.862Z,10.61
2023-05-05T01:57:10.037Z,10.60
2023-05-05T01:57:26.521Z,10.60
2023-05-05T01:57:41.884Z,10.60
2023-05-05T01:57:56.162Z,10.61
2023-05-05T01:58:11.107Z,10.60
2023-05-05T01:58:27.019Z,10.61
2023-05-05T01:58:43.014Z,10.61
2023-05-05T01:58:56.554Z,10.61
2023-05-05T01:59:11.184Z,10.61
2023-05-05T01:59:26.388Z,10.61
2023-05-05T01:59:40.076Z,10.60
2023-05-05T01:59:53.818Z,10.60
2023-05-05T02:00:10.646Z,10.60
2023-05-05T02:00:26.974Z,10.60
2023-05-05T02:00:41.508Z,10.61
2023-05-05T02:00:57.049Z,10.60
2023-05-05T02:01:11.263Z,10.60
2023-05-05T02:01:26.997Z,10.60
2023-05-05T02:01:44.659Z,10.59
2023-05-05T02:01:59.686Z,10.59
2023-05-05T02:02:15.723Z,10.59
2023-05-05T02:02:29.292Z,10.59
2023-05-05T02:02:44.689Z,10.58
2023-05-05T02:02:59.845Z,10.58
2023-05-05T02:03:14.967Z,10.58
2023-05-05T02:03:31.458Z,10.58
2023-05-05T02:03:47.068Z,10.58
2023-05-05T02:04:02.003Z,10.57
2023-05-05T02:04:17.931Z,10.58
2023-05-05T02:04:33.178Z,10.57
2023-05-05T02:04:46.539Z,10.57
2023-05-05T02:05:01.230Z,10.57
2023-05-05T02:05:16.276Z,10.57
2023-05-05T02:05:30.417Z,10.56
2023-05-05T02:05:44.657Z,10.57
2023-05-05T02:06:00.532Z,10.56
2023-05-05T02:06:14.976Z,10.56
2023-05-05T02:06:32.436Z,10.55
2023-05-05T02:06:50.384Z,10.55
2023-05-05T02:07:05.043Z,10.57
2023-05-05T02:07:18.358Z,10.55
2023-05-05T02:07:33.251Z,10.55
2023-05-05T02:07:46.209Z,10.55
2023-05-05T02:08:00.371Z,10.55
2023-05-05T02:08:14.362Z,10.54
2023-05-05T02:08:28.820Z,10.54
2023-05-05T02:08:43.352Z,10.54
2023-05-05T02:08:58.402Z,10.54
2023-05-05T02:09:13.058Z,10.52
2023-05-05T02:09:29.266Z,10.53
2023-05-05T02:09:44.178Z,10.53
2023-05-05T02:09:57.391Z,10.51
2023-05-05T02:10:13.528Z,10.53
2023-05-05T02:10:27.604Z,10.52
2023-05-05T02:10:41.060Z,10.51
2023-05-05T02:10:55.757Z,10.52
2023-05-05T02:11:10.659Z,10.52
2023-05-05T02:11:25.109Z,10.52
2023-05-05T02:11:39.119Z,10.52
2023-05-05T02:11:52.488Z,10.51
2023-05-05T02:12:07.401Z,10.51
2023-05-05T02:12:21.108Z,10.49
2023-05-05T02:12:36.002Z,10.48
2023-05-05T02:12:50.319Z,10.50
2023-05-05T02:13:05.222Z,10.50
2023-05-05T02:13:18.938Z,10.50
2023-05-05T02:13:32.984Z,10.49
2023-05-05T02:13:47.467Z,10.50
2023-05-05T02:14:01.322Z,10.50
2023-05-05T02:14:16.163Z,10.50
2023-05-05T02:14:31.561Z,10.50
2023-05-05T02:14:46.397Z,10.49
2023-05-05T02:15:01.457Z,10.48
2023-05-05T02:15:15.541Z,10.47
2023-05-05T02:15:28.840Z,10.47
2023-05-05T02:15:44.013Z,10.46
2023-05-05T02:15:57.747Z,10.47
2023-05-05T02:16:12.655Z,10.47
2023-05-05T02:16:25.494Z,10.47
2023-05-05T02:16:41.209Z,10.46
2023-05-05T02:16:55.640Z,10.47
2023-05-05T02:17:09.739Z,10.47
2023-05-05T02:17:25.943Z,10.46
2023-05-05T02:17:42.409Z,10.46
2023-05-05T02:17:57.961Z,10.45
2023-05-05T02:18:11.739Z,10.45
2023-05-05T02:18:25.972Z,10.46
2023-05-05T02:18:38.937Z,10.46
2023-05-05T02:18:53.675Z,10.47
2023-05-05T02:19:07.235Z,10.46
2023-05-05T02:19:25.392Z,10.46
2023-05-05T02:19:40.218Z,10.45
2023-05-05T02:19:54.551Z,10.43
2023-05-05T02:20:10.992Z,10.44
2023-05-05T02:20:24.578Z,10.43
2023-05-05T02:20:40.422Z,10.43
2023-05-05T02:20:53.495Z,10.43
2023-05-05T02:21:07.581Z,10.42
2023-05-05T02:21:20.923Z,10.41
2023-05-05T02:21:34.483Z,10.43
2023-05-05T02:21:47.106Z,10.41
2023-05-05T02:22:00.221Z,10.41
2023-05-05T02:22:12.732Z,10.41
2023-05-05T02:22:25.484Z,10.40
2023-05-05T02:22:39.106Z,10.40
2023-05-05T02:22:51.682Z,10.40
2023-05-05T02:23:05.730Z,10.40
2023-05-05T02:23:18.335Z,10.40
2023-05-05T02:23:30.961Z,10.40
2023-05-05T02:23:43.949Z,10.39
2023-05-05T02:23:56.689Z,10.39
2023-05-05T02:24:10.533Z,10.40
2023-05-05T02:24:23.476Z,10.40
2023-05-05T02:24:36.160Z,10.39
2023-05-05T02:24:48.878Z,10.39
2023-05-05T02:25:01.468Z,10.39
2023-05-05T02:25:14.642Z,10.39
2023-05-05T02:25:32.510Z,10.39
2023-05-05T02:25:50.898Z,10.38
2023-05-05T02:26:07.925Z,10.38
2023-05-05T02:26:22.671Z,10.37
2023-05-05T02:26:39.255Z,10.38
2023-05-05T02:26:54.614Z,10.37
2023-05-05T02:27:09.520Z,10.36
2023-05-05T02:27:24.407Z,10.36
2023-05-05T02:27:39.372Z,10.36
2023-05-05T02:27:57.692Z,10.35
2023-05-05T02:28:15.619Z,10.35
2023-05-05T02:28:35.498Z,10.34
2023-05-05T02:28:53.696Z,10.33
2023-05-05T02:29:09.656Z,10.33
2023-05-05T02:29:28.834Z,10.33
2023-05-05T02:29:47.890Z,10.33
2023-05-05T02:30:04.736Z,10.33
2023-05-05T02:30:19.855Z,10.33
2023-05-05T02:30:35.952Z,10.34
2023-05-05T02:30:57.569Z,10.34
2023-05-05T02:31:13.932Z,10.34
2023-05-05T02:31:29.028Z,10.33
2023-05-05T02:31:46.668Z,10.35
2023-05-05T02:32:04.360Z,10.35
2023-05-05T02:32:21.749Z,10.35
2023-05-05T02:32:40.346Z,10.35
2023-05-05T02:32:59.098Z,10.36
2023-05-05T02:33:16.613Z,10.36
2023-05-05T02:33:33.048Z,10.36
2023-05-05T02:33:48.501Z,10.36
2023-05-05T02:34:03.728Z,10.35
2023-05-05T02:34:22.711Z,10.34
2023-05-05T02:34:38.572Z,10.34
2023-05-05T02:34:53.220Z,10.33
2023-05-05T02:35:12.498Z,10.33
2023-05-05T02:35:34.070Z,10.32
2023-05-05T02:35:50.762Z,10.31
2023-05-05T02:36:09.943Z,10.29
2023-05-05T02:36:26.032Z,10.27
2023-05-05T02:36:40.960Z,10.26
2023-05-05T02:36:58.500Z,10.25
2023-05-05T02:37:16.753Z,10.25
2023-05-05T02:37:31.724Z,10.25
2023-05-05T02:37:48.480Z,10.25
2023-05-05T02:38:05.528Z,10.25
2023-05-05T02:38:18.884Z,10.24
2023-05-05T02:38:33.587Z,10.24
2023-05-05T02:38:48.697Z,10.24
2023-05-05T02:39:04.825Z,10.25
2023-05-05T02:39:25.102Z,10.24
2023-05-05T02:39:43.723Z,10.22
2023-05-05T02:40:01.704Z,10.22
2023-05-05T02:40:17.866Z,10.22
2023-05-05T02:40:33.013Z,10.21
2023-05-05T02:40:50.611Z,10.21
2023-05-05T02:41:04.467Z,10.21
2023-05-05T02:41:20.080Z,10.21
2023-05-05T02:41:36.170Z,10.20
2023-05-05T02:41:50.463Z,10.20
2023-05-05T02:42:04.804Z,10.21
2023-05-05T02:42:21.865Z,10.21
2023-05-05T02:42:38.311Z,10.21
2023-05-05T02:42:54.446Z,10.21
2023-05-05T02:43:11.371Z,10.22
2023-05-05T02:43:25.915Z,10.21
2023-05-05T02:43:41.175Z,10.21
2023-05-05T02:43:58.204Z,10.20
2023-05-05T02:44:13.964Z,10.18
2023-05-05T02:44:29.203Z,10.18
2023-05-05T02:44:42.741Z,10.18
2023-05-05T02:44:57.753Z,10.18
2023-05-05T02:45:13.133Z,10.17
2023-05-05T02:45:27.614Z,10.18
2023-05-05T02:45:41.215Z,10.18
2023-05-05T02:45:53.759Z,10.17
2023-05-05T02:46:08.085Z,10.16
2023-05-05T02:46:20.913Z,10.17
2023-05-05T02:46:33.790Z,10.16
2023-05-05T02:46:46.752Z,10.16
2023-05-05T02:46:59.557Z,10.16
2023-05-05T02:47:13.155Z,10.16
2023-05-05T02:47:34.276Z,10.16
2023-05-05T02:47:48.596Z,10.15
2023-05-05T02:48:03.114Z,10.15
2023-05-05T02:48:16.049Z,10.15
2023-05-05T02:48:29.749Z,10.15
2023-05-05T02:48:43.322Z,10.14
2023-05-05T02:48:56.175Z,10.15
2023-05-05T02:49:08.839Z,10.15
2023-05-05T02:49:21.668Z,10.14
2023-05-05T02:49:34.266Z,10.15
2023-05-05T02:49:47.290Z,10.14
2023-05-05T02:50:00.815Z,10.15
2023-05-05T02:50:13.391Z,10.15
2023-05-05T02:50:25.920Z,10.15
2023-05-05T02:50:38.899Z,10.14
2023-05-05T02:50:51.828Z,10.15
2023-05-05T02:51:04.791Z,10.15
2023-05-05T02:51:18.318Z,10.15
2023-05-05T02:51:30.868Z,10.15
2023-05-05T02:51:43.651Z,10.16
2023-05-05T02:51:57.958Z,10.16
2023-05-05T02:52:10.654Z,10.15
2023-05-05T02:52:23.155Z,10.17
2023-05-05T02:52:36.548Z,10.16
2023-05-05T02:52:50.224Z,10.16
2023-05-05T02:53:02.938Z,10.17
2023-05-05T02:53:15.778Z,10.16
2023-05-05T02:53:29.293Z,10.17
2023-05-05T02:53:42.063Z,10.17
2023-05-05T02:53:54.869Z,10.16
2023-05-05T02:54:08.698Z,10.16
2023-05-05T02:54:21.624Z,10.17
2023-05-05T02:54:34.349Z,10.15
2023-05-05T02:54:46.978Z,10.16
2023-05-05T02:55:00.374Z,10.15
2023-05-05T02:55:13.712Z,10.15
2023-05-05T02:55:29.389Z,10.15
2023-05-05T02:55:52.781Z,10.14
2023-05-05T02:56:16.380Z,10.14
2023-05-05T02:56:38.145Z,10.13
2023-05-05T02:56:51.834Z,10.13
2023-05-05T02:57:05.536Z,10.13
2023-05-05T02:57:20.956Z,10.13
2023-05-05T02:57:38.945Z,10.14
2023-05-05T02:57:58.182Z,10.13
2023-05-05T02:58:21.916Z,10.14
2023-05-05T02:58:42.592Z,10.13
2023-05-05T02:59:00.529Z,10.12
2023-05-05T02:59:19.568Z,10.11
2023-05-05T02:59:39.296Z,10.12
2023-05-05T03:00:00.439Z,10.12
2023-05-05T03:00:19.410Z,10.11
2023-05-05T03:00:38.579Z,10.11
2023-05-05T03:01:07.353Z,10.12
2023-05-05T03:01:29.449Z,10.10
2023-05-05T03:01:56.812Z,10.11
2023-05-05T03:02:17.894Z,10.10
2023-05-05T03:02:43.395Z,10.10
2023-05-05T03:03:14.165Z,10.10
2023-05-05T03:03:40.928Z,10.10
2023-05-05T03:04:04.641Z,10.10
2023-05-05T03:04:23.059Z,10.10
2023-05-05T03:04:39.541Z,10.10
2023-05-05T03:04:56.834Z,10.10
2023-05-05T03:05:14.011Z,10.10
2023-05-05T03:05:35.455Z,10.08
2023-05-05T03:06:07.546Z,10.09
2023-05-05T03:06:21.965Z,10.09
2023-05-05T03:06:41.105Z,10.09
2023-05-05T03:06:58.638Z,10.09
2023-05-05T03:07:15.895Z,10.07
2023-05-05T03:07:34.554Z,10.07
2023-05-05T03:07:54.700Z,10.09
2023-05-05T03:08:14.512Z,10.10
2023-05-05T03:08:30.052Z,10.09
2023-05-05T03:08:45.066Z,10.10
2023-05-05T03:09:06.417Z,10.10
2023-05-05T03:09:25.964Z,10.11
2023-05-05T03:09:44.691Z,10.11
2023-05-05T03:10:06.489Z,10.12
2023-05-05T03:10:26.191Z,10.12
2023-05-05T03:10:46.400Z,10.12
2023-05-05T03:11:04.794Z,10.12
2023-05-05T03:11:26.257Z,10.13
2023-05-05T03:11:45.003Z,10.12
2023-05-05T03:12:03.792Z,10.13
2023-05-05T03:12:20.342Z,10.13
2023-05-05T03:12:38.606Z,10.13
2023-05-05T03:12:55.035Z,10.12
2023-05-05T03:13:11.688Z,10.12
2023-05-05T03:13:27.403Z,10.12
2023-05-05T03:13:42.882Z,10.14
2023-05-05T03:14:05.859Z,10.13
2023-05-05T03:14:21.156Z,10.13
2023-05-05T03:14:37.077Z,10.13
2023-05-05T03:14:52.857Z,10.13
2023-05-05T03:15:09.275Z,10.13
2023-05-05T03:15:25.831Z,10.13
2023-05-05T03:15:43.442Z,10.13
2023-05-05T03:15:57.962Z,10.13
2023-05-05T03:16:11.807Z,10.13
2023-05-05T03:16:26.170Z,10.13
2023-05-05T03:16:42.981Z,10.13
2023-05-05T03:16:56.777Z,10.13
2023-05-05T03:17:11.004Z,10.13
2023-05-05T03:17:25.617Z,10.12
2023-05-05T03:17:40.929Z,10.13
2023-05-05T03:17:54.206Z,10.13
2023-05-05T03:18:11.648Z,10.13
2023-05-05T03:18:26.526Z,10.12
2023-05-05T03:18:40.481Z,10.14
2023-05-05T03:18:54.130Z,10.14
2023-05-05T03:19:08.861Z,10.12
2023-05-05T03:19:24.095Z,10.13
2023-05-05T03:19:38.968Z,10.13
2023-05-05T03:19:52.341Z,10.13
2023-05-05T03:20:06.578Z,10.14
2023-05-05T03:20:21.838Z,10.12
2023-05-05T03:20:35.070Z,10.13
2023-05-05T03:20:49.404Z,10.14
2023-05-05T03:21:08.548Z,10.13
2023-05-05T03:21:21.614Z,10.13